createdAt,value
2024-02-11T00:04:34.223Z,99721.66
2024-02-11T00:09:36.598Z,99762.88
2024-02-11T00:14:38.811Z,99748.75
2024-02-11T00:19:41.434Z,99755.94
2024-02-11T00:24:43.879Z,99745.78
2024-02-11T00:29:46.240Z,99745.13
2024-02-11T00:34:48.454Z,99732.81
2024-02-11T00:39:50.730Z,99735.72
2024-02-11T00:44:53.548Z,99735.50
2024-02-11T00:49:56.895Z,99730.41
2024-02-11T00:54:59.220Z,99728.88
2024-02-11T01:00:01.515Z,99731.81
2024-02-11T01:05:07.499Z,99717.34
2024-02-11T01:10:13.970Z,99724.53
2024-02-11T01:15:19.448Z,99694.03
2024-02-11T01:20:22.684Z,99716.50
2024-02-11T01:25:24.983Z,99712.84
2024-02-11T01:30:27.312Z,99715.31
2024-02-11T01:35:30.126Z,99680.28
2024-02-11T01:40:34.011Z,99719.88
2024-02-11T01:45:37.151Z,99709.19
2024-02-11T01:50:41.808Z,99702.66
2024-02-11T01:55:45.581Z,99697.88
2024-02-11T02:00:49.523Z,99666.34
2024-02-11T02:05:53.270Z,99696.75
2024-02-11T02:10:55.845Z,99697.81
2024-02-11T02:15:58.244Z,99685.94
2024-02-11T02:21:00.485Z,99709.53
2024-02-11T02:26:10.186Z,99712.84
2024-02-11T02:31:12.521Z,99717.25
2024-02-11T02:36:19.167Z,99707.09
2024-02-11T02:41:22.505Z,99706.03
2024-02-11T02:46:29.378Z,99706.06
2024-02-11T02:51:32.405Z,99703.44
2024-02-11T02:56:35.819Z,99711.16
2024-02-11T03:01:39.603Z,99673.13
2024-02-11T03:06:42.197Z,99711.25
2024-02-11T03:11:44.538Z,99703.84
2024-02-11T03:16:48.473Z,99708.75
2024-02-11T03:21:54.178Z,99717.22
2024-02-11T03:26:58.148Z,99687.91
2024-02-11T03:32:00.604Z,99715.66
2024-02-11T03:37:02.803Z,99712.38
2024-02-11T03:42:06.126Z,99684.66
2024-02-11T03:47:08.533Z,99708.00
2024-02-11T03:52:10.946Z,99696.31
2024-02-11T03:57:13.285Z,99702.38
2024-02-11T04:02:15.683Z,99703.31
2024-02-11T04:07:21.336Z,99706.16
2024-02-11T04:12:23.828Z,99696.00
2024-02-11T04:17:29.356Z,99696.09
2024-02-11T04:22:31.646Z,99688.56
2024-02-11T04:27:37.637Z,99695.47
2024-02-11T04:32:43.733Z,99682.19
2024-02-11T04:37:50.865Z,99698.31
2024-02-11T04:42:54.244Z,99698.47
2024-02-11T04:48:01.529Z,99690.06
2024-02-11T04:53:04.409Z,99701.31
2024-02-11T04:58:20.675Z,99702.00
2024-02-11T05:03:25.536Z,99708.31
2024-02-11T05:08:28.769Z,99699.13
2024-02-11T05:13:32.185Z,99718.66
2024-02-11T05:18:37.736Z,99720.44
2024-02-11T05:23:41.469Z,99721.91
2024-02-11T05:28:44.918Z,99708.22
2024-02-11T05:33:47.219Z,99715.75
2024-02-11T05:38:49.736Z,99709.09
2024-02-11T05:43:52.279Z,99709.09
2024-02-11T05:48:54.597Z,99691.81
2024-02-11T05:53:57.028Z,99698.34
2024-02-11T05:58:59.240Z,99694.63
2024-02-11T06:04:01.645Z,99695.28
2024-02-11T06:09:06.744Z,99703.13
2024-02-11T06:14:09.174Z,99702.56
2024-02-11T06:19:11.483Z,99700.16
2024-02-11T06:24:14.345Z,99704.28
2024-02-11T06:29:36.176Z,99703.56
2024-02-11T06:34:39.513Z,99694.22
2024-02-11T06:39:41.880Z,99693.56
2024-02-11T06:44:44.313Z,99700.44
2024-02-11T06:49:47.003Z,99708.06
2024-02-11T06:54:50.483Z,99698.84
2024-02-11T06:59:54.196Z,99693.66
2024-02-11T07:04:57.257Z,99674.81
2024-02-11T07:10:00.334Z,99689.13
2024-02-11T07:15:07.493Z,99659.69
2024-02-11T07:20:13.301Z,99659.94
2024-02-11T07:25:18.606Z,99670.66
2024-02-11T07:30:21.540Z,99674.56
2024-02-11T07:35:24.975Z,99656.56
2024-02-11T07:40:27.222Z,99648.78
2024-02-11T07:45:29.600Z,99660.22
2024-02-11T07:50:35.549Z,99648.91
2024-02-11T07:55:37.995Z,99644.44
2024-02-11T08:00:41.035Z,99668.81
2024-02-11T08:05:43.557Z,99655.00
2024-02-11T08:10:46.000Z,99659.75
2024-02-11T08:15:48.369Z,99665.59
2024-02-11T08:20:50.732Z,99665.84
2024-02-11T08:25:53.097Z,99657.44
2024-02-11T08:30:55.443Z,99657.31
2024-02-11T08:35:58.059Z,99618.72
2024-02-11T08:41:00.449Z,99658.09
2024-02-11T08:46:05.777Z,99647.66
2024-02-11T08:51:08.887Z,99637.00
2024-02-11T08:56:11.570Z,99648.44
2024-02-11T09:01:14.066Z,99659.91
2024-02-11T09:06:16.625Z,99649.19
2024-02-11T09:11:19.012Z,99645.47
2024-02-11T09:16:21.330Z,99630.25
2024-02-11T09:21:23.941Z,99605.50
2024-02-11T09:26:26.381Z,99593.63
2024-02-11T09:31:28.783Z,99611.94
2024-02-11T09:36:31.101Z,99611.59
2024-02-11T09:41:34.408Z,99596.19
2024-02-11T09:46:38.749Z,99604.50
2024-02-11T09:51:43.040Z,99605.00
2024-02-11T09:56:45.953Z,99591.59
2024-02-11T10:01:50.055Z,99598.69
2024-02-11T10:06:54.259Z,99606.28
2024-02-11T10:11:57.382Z,99600.84
2024-02-11T10:17:01.089Z,99588.53
2024-02-11T10:22:14.679Z,99589.91
2024-02-11T10:27:25.783Z,99604.59
2024-02-11T10:32:32.360Z,99596.69
2024-02-11T10:37:52.518Z,99601.41
2024-02-11T10:42:57.513Z,99594.13
2024-02-11T10:48:00.070Z,99591.53
2024-02-11T10:53:06.404Z,99567.44
2024-02-11T10:58:09.724Z,99606.84
2024-02-11T11:03:16.263Z,99580.13
2024-02-11T11:08:20.802Z,99571.06
2024-02-11T11:13:26.349Z,99576.78
2024-02-11T11:18:28.751Z,99576.84
2024-02-11T11:23:31.976Z,99562.16
2024-02-11T11:28:34.288Z,99572.03
2024-02-11T11:33:37.204Z,99572.31
2024-02-11T11:38:39.927Z,99572.84
2024-02-11T11:43:42.611Z,99549.41
2024-02-11T11:48:45.067Z,99529.28
2024-02-11T11:53:48.369Z,99541.53
2024-02-11T11:58:53.846Z,99522.88
2024-02-11T12:03:56.115Z,99513.50
2024-02-11T12:08:58.528Z,99492.25
2024-02-11T12:14:01.639Z,99504.50
2024-02-11T12:19:03.970Z,99505.06
2024-02-11T12:24:06.618Z,99504.31
2024-02-11T12:29:08.860Z,99484.44
2024-02-11T12:34:11.222Z,99485.44
2024-02-11T12:39:14.485Z,99485.44
2024-02-11T12:44:16.827Z,99467.97
2024-02-11T12:49:19.188Z,99472.34
2024-02-11T12:54:21.467Z,99469.84
2024-02-11T12:59:25.196Z,99466.41
2024-02-11T13:04:27.720Z,99474.56
2024-02-11T13:09:48.435Z,99468.06
2024-02-11T13:14:50.769Z,99443.88
2024-02-11T13:19:53.971Z,99454.16
2024-02-11T13:24:56.229Z,99439.09
2024-02-11T13:29:58.489Z,99442.19
2024-02-11T13:35:01.722Z,99418.50
2024-02-11T13:40:13.389Z,99414.59
2024-02-11T13:45:16.341Z,99423.91
2024-02-11T13:50:18.637Z,99426.75
2024-02-11T13:55:20.928Z,99408.25
2024-02-11T14:00:23.553Z,99431.84
2024-02-11T14:05:26.033Z,99430.44
2024-02-11T14:10:28.405Z,99431.28
2024-02-11T14:15:30.846Z,99428.13
2024-02-11T14:20:51.782Z,99427.88
2024-02-11T14:25:54.099Z,99427.69
2024-02-11T14:30:58.122Z,99437.00
2024-02-11T14:36:01.059Z,99437.66
2024-02-11T14:41:04.480Z,99438.59
2024-02-11T14:46:07.786Z,99433.78
2024-02-11T14:51:10.065Z,99440.22
2024-02-11T14:56:12.472Z,99444.75
2024-02-11T15:01:16.155Z,99432.59
2024-02-11T15:06:19.015Z,99443.44
2024-02-11T15:11:23.379Z,99438.84
2024-02-11T15:16:25.729Z,99460.13
2024-02-11T15:21:27.970Z,99473.53
2024-02-11T15:26:30.520Z,99477.63
2024-02-11T15:31:32.909Z,99481.63
2024-02-11T15:36:35.530Z,99464.91
2024-02-11T15:41:37.833Z,99475.22
2024-02-11T15:46:40.382Z,99466.09
2024-02-11T15:51:47.004Z,99489.91
2024-02-11T15:56:50.288Z,99447.59
2024-02-11T16:01:52.766Z,99466.22
2024-02-11T16:06:55.663Z,99453.63
2024-02-11T16:11:59.586Z,99473.56
2024-02-11T16:17:01.848Z,99464.72
2024-02-11T16:22:04.276Z,99465.53
2024-02-11T16:27:25.337Z,99436.47
2024-02-11T16:32:27.789Z,99433.63
2024-02-11T16:37:30.094Z,99427.78
2024-02-11T16:42:32.383Z,99452.03
2024-02-11T16:47:34.803Z,99433.53
2024-02-11T16:52:37.710Z,99429.44
2024-02-11T16:57:40.217Z,99419.13
2024-02-11T17:02:44.620Z,99462.84
2024-02-11T17:07:50.158Z,99457.66
2024-02-11T17:12:52.625Z,99454.91
2024-02-11T17:17:55.299Z,99447.31
2024-02-11T17:22:57.808Z,99442.50
2024-02-11T17:28:00.935Z,99427.56
2024-02-11T17:33:03.482Z,99413.03
2024-02-11T17:38:07.456Z,99440.81
2024-02-11T17:43:11.035Z,99430.94
2024-02-11T17:48:13.609Z,99422.25
2024-02-11T17:53:16.407Z,99425.91
2024-02-11T17:58:18.759Z,99425.34
2024-02-11T18:03:22.451Z,99432.47
2024-02-11T18:08:24.886Z,99429.84
2024-02-11T18:13:27.346Z,99412.63
2024-02-11T18:18:34.512Z,99410.84
2024-02-11T18:23:37.444Z,99413.28
2024-02-11T18:28:43.825Z,99403.00
2024-02-11T18:33:46.517Z,99386.56
2024-02-11T18:38:49.015Z,99398.72
2024-02-11T18:43:51.327Z,99396.06
2024-02-11T18:48:53.575Z,99389.19
2024-02-11T18:53:55.780Z,99408.34
2024-02-11T18:58:58.132Z,99403.25
2024-02-11T19:04:00.420Z,99401.66
2024-02-11T19:09:08.148Z,99401.31
2024-02-11T19:14:10.580Z,99391.78
2024-02-11T19:19:15.768Z,99402.28
2024-02-11T19:24:18.110Z,99410.78
2024-02-11T19:29:21.966Z,99387.63
2024-02-11T19:34:24.274Z,99400.53
2024-02-11T19:39:27.565Z,99396.75
2024-02-11T19:44:32.158Z,99399.44
2024-02-11T19:49:36.051Z,99385.06
2024-02-11T19:54:38.443Z,99384.22
2024-02-11T19:59:40.996Z,99382.84
2024-02-11T20:04:43.441Z,99366.72
2024-02-11T20:09:45.739Z,99364.78
2024-02-11T20:14:48.014Z,99367.16
2024-02-11T20:19:52.565Z,99357.84
2024-02-11T20:25:13.441Z,99352.75
2024-02-11T20:30:15.949Z,99347.56
2024-02-11T20:35:19.837Z,99352.50
2024-02-11T20:40:22.171Z,99344.59
2024-02-11T20:45:25.260Z,99353.78
2024-02-11T20:50:28.785Z,99340.72
2024-02-11T20:55:30.982Z,99339.63
2024-02-11T21:00:36.698Z,99333.03
2024-02-11T21:05:39.169Z,99306.19
2024-02-11T21:10:46.026Z,99319.97
2024-02-11T21:16:08.599Z,99316.28
2024-02-11T21:21:11.500Z,99324.06
2024-02-11T21:26:18.493Z,99319.44
2024-02-11T21:31:23.216Z,99309.34
2024-02-11T21:36:26.742Z,99300.16
2024-02-11T21:41:29.142Z,99304.16
2024-02-11T21:46:31.913Z,99303.97
2024-02-11T21:51:36.241Z,99299.72
2024-02-11T21:56:38.926Z,99288.31
2024-02-11T22:01:41.362Z,99284.91
2024-02-11T22:06:43.944Z,99295.28
2024-02-11T22:11:46.412Z,99293.31
2024-02-11T22:16:49.842Z,99295.34
2024-02-11T22:21:52.200Z,99290.00
2024-02-11T22:26:57.827Z,99270.72
2024-02-11T22:32:00.195Z,99295.44
2024-02-11T22:37:02.650Z,99278.78
2024-02-11T22:42:06.333Z,99295.25
2024-02-11T22:47:08.795Z,99290.88
2024-02-11T22:52:14.425Z,99282.09
2024-02-11T22:57:17.113Z,99284.13
2024-02-11T23:02:20.112Z,99284.03
2024-02-11T23:07:22.312Z,99287.09
2024-02-11T23:12:24.570Z,99270.28
2024-02-11T23:17:27.577Z,99269.63
2024-02-11T23:22:34.476Z,99255.66
2024-02-11T23:27:38.756Z,99251.53
2024-02-11T23:32:44.353Z,99247.69
2024-02-11T23:37:46.560Z,99254.94
2024-02-11T23:42:48.888Z,99244.44
2024-02-11T23:47:51.121Z,99218.72
2024-02-11T23:52:54.052Z,99229.00
2024-02-11T23:57:56.439Z,99213.63
